Aviation Digital Data Service (ADDS)

Output produced by METARs form (0046 UTC 20 July 2019)
found at http://www.aviationweather.gov/metar/data/
 
METAR text: WSSL 200000Z 13004KT 100V160 9999 FEW018 BKN300 28/24 Q1009
Conditions at: WSSL (SINGAPORE/SELETA, SG) observed 0000 UTC 20 July 2019
Temperature: 28.0°C (82°F)
Dewpoint: 24.0°C (75°F) [RH = 79%]
Pressure (altimeter): 29.79 inches Hg (1009.0 mb)
Winds: from the SE (130 degrees) at 5 MPH (4 knots; 2.1 m/s)
Visibility: 6 or more miles (10+ km)
Ceiling: 30000 feet AGL
Clouds: few clouds at 1800 feet AGL
broken clouds at 30000 feet AGL
Weather: no significant weather observed at this time

Forecast for: WSSL (SINGAPORE/SELETA, SG)
Text: TAF WSSL 192300Z 2000/2106 17010KT 9999 FEW015 SCT020
Forecast period: 0000 UTC 20 July 2019 to 0600 UTC 21 July 2019
Forecast type: FROM: standard forecast or significant change
Winds: from the S (170 degrees) at 12 MPH (10 knots; 5.1 m/s)
Visibility: 6 or more miles 10+ km)
Ceiling: at least 12,000 feet AGL
Clouds: few clouds at 1500 feet AGL
scattered clouds at 2000 feet AGL
Weather: no significant weather forecast for this period